sensor_id;sensor_type;location;lat;lon;timestamp;pressure;altitude;pressure_sealevel;temperature;humidity
73558;BME280;61829;53.286;10.434;2023-04-01T00:01:46;99303.25;;;9.23;100.00
73558;BME280;61829;53.286;10.434;2023-04-01T00:04:12;99301.56;;;9.22;100.00
73558;BME280;61829;53.286;10.434;2023-04-01T00:06:38;99309.88;;;9.20;100.00
73558;BME280;61829;53.286;10.434;2023-04-01T00:09:04;99302.00;;;9.19;100.00
73558;BME280;61829;53.286;10.434;2023-04-01T00:11:29;99304.06;;;9.17;100.00
73558;BME280;61829;53.286;10.434;2023-04-01T00:13:55;99307.59;;;9.17;100.00
73558;BME280;61829;53.286;10.434;2023-04-01T00:16:22;99310.50;;;9.16;100.00
73558;BME280;61829;53.286;10.434;2023-04-01T00:18:49;99302.44;;;9.16;100.00
73558;BME280;61829;53.286;10.434;2023-04-01T00:21:16;99311.53;;;9.15;100.00
73558;BME280;61829;53.286;10.434;2023-04-01T00:23:43;99308.22;;;9.13;100.00
73558;BME280;61829;53.286;10.434;2023-04-01T00:26:09;99313.63;;;9.13;100.00
73558;BME280;61829;53.286;10.434;2023-04-01T00:28:35;99301.00;;;9.13;100.00
73558;BME280;61829;53.286;10.434;2023-04-01T00:31:07;99305.97;;;9.10;100.00
73558;BME280;61829;53.286;10.434;2023-04-01T00:33:33;99305.97;;;9.10;100.00
73558;BME280;61829;53.286;10.434;2023-04-01T00:36:14;99307.03;;;9.09;100.00
73558;BME280;61829;53.286;10.434;2023-04-01T00:38:41;99307.84;;;9.09;100.00
73558;BME280;61829;53.286;10.434;2023-04-01T00:41:10;99304.34;;;9.09;100.00
73558;BME280;61829;53.286;10.434;2023-04-01T00:43:44;99301.84;;;9.07;100.00
73558;BME280;61829;53.286;10.434;2023-04-01T00:46:11;99302.03;;;9.06;100.00
73558;BME280;61829;53.286;10.434;2023-04-01T00:48:57;99304.53;;;9.07;100.00
73558;BME280;61829;53.286;10.434;2023-04-01T00:51:27;99305.59;;;9.06;100.00
73558;BME280;61829;53.286;10.434;2023-04-01T00:53:56;99300.03;;;9.01;100.00
73558;BME280;61829;53.286;10.434;2023-04-01T00:56:30;99303.72;;;9.00;100.00
73558;BME280;61829;53.286;10.434;2023-04-01T00:59:02;99303.94;;;8.98;100.00
73558;BME280;61829;53.286;10.434;2023-04-01T01:01:30;99305.81;;;8.98;100.00
73558;BME280;61829;53.286;10.434;2023-04-01T01:03:56;99306.84;;;8.97;100.00
73558;BME280;61829;53.286;10.434;2023-04-01T01:09:18;99300.03;;;8.94;100.00
73558;BME280;61829;53.286;10.434;2023-04-01T01:12:05;99304.56;;;8.94;100.00
73558;BME280;61829;53.286;10.434;2023-04-01T01:14:45;99308.50;;;8.91;100.00
73558;BME280;61829;53.286;10.434;2023-04-01T01:31:27;99299.25;;;8.81;100.00
73558;BME280;61829;53.286;10.434;2023-04-01T01:36:31;99300.69;;;8.76;100.00
73558;BME280;61829;53.286;10.434;2023-04-01T01:39:02;99300.09;;;8.74;100.00
73558;BME280;61829;53.286;10.434;2023-04-01T01:41:30;99302.78;;;8.74;100.00
73558;BME280;61829;53.286;10.434;2023-04-01T01:43:59;99296.00;;;8.72;100.00
73558;BME280;61829;53.286;10.434;2023-04-01T01:46:27;99300.72;;;8.70;100.00
73558;BME280;61829;53.286;10.434;2023-04-01T01:48:54;99295.38;;;8.70;100.00
73558;BME280;61829;53.286;10.434;2023-04-01T01:51:22;99309.59;;;8.70;100.00
73558;BME280;61829;53.286;10.434;2023-04-01T01:53:48;99299.91;;;8.69;100.00
73558;BME280;61829;53.286;10.434;2023-04-01T01:56:17;99298.25;;;8.68;100.00
73558;BME280;61829;53.286;10.434;2023-04-01T01:58:51;99310.66;;;8.69;100.00
73558;BME280;61829;53.286;10.434;2023-04-01T02:01:23;99300.50;;;8.71;100.00
73558;BME280;61829;53.286;10.434;2023-04-01T02:03:50;99305.28;;;8.69;100.00
73558;BME280;61829;53.286;10.434;2023-04-01T02:06:21;99302.38;;;8.71;100.00
73558;BME280;61829;53.286;10.434;2023-04-01T02:08:49;99308.56;;;8.71;100.00
73558;BME280;61829;53.286;10.434;2023-04-01T02:11:18;99313.94;;;8.71;100.00
73558;BME280;61829;53.286;10.434;2023-04-01T02:13:57;99313.13;;;8.71;100.00
73558;BME280;61829;53.286;10.434;2023-04-01T02:17:06;99312.09;;;8.72;100.00
73558;BME280;61829;53.286;10.434;2023-04-01T02:19:56;99310.22;;;8.72;100.00
73558;BME280;61829;53.286;10.434;2023-04-01T02:22:32;99308.38;;;8.73;100.00
73558;BME280;61829;53.286;10.434;2023-04-01T02:25:02;99312.91;;;8.72;100.00
73558;BME280;61829;53.286;10.434;2023-04-01T02:27:31;99312.69;;;8.74;100.00
73558;BME280;61829;53.286;10.434;2023-04-01T02:29:57;99310.00;;;8.74;100.00
73558;BME280;61829;53.286;10.434;2023-04-01T02:32:25;99323.25;;;8.75;100.00
73558;BME280;61829;53.286;10.434;2023-04-01T02:34:53;99319.72;;;8.75;100.00
73558;BME280;61829;53.286;10.434;2023-04-01T02:37:19;99321.56;;;8.74;100.00
73558;BME280;61829;53.286;10.434;2023-04-01T02:39:45;99319.09;;;8.73;100.00
73558;BME280;61829;53.286;10.434;2023-04-01T02:42:11;99312.91;;;8.72;100.00
73558;BME280;61829;53.286;10.434;2023-04-01T02:44:37;99325.31;;;8.73;100.00
73558;BME280;61829;53.286;10.434;2023-04-01T02:47:03;99331.50;;;8.74;100.00
73558;BME280;61829;53.286;10.434;2023-04-01T02:49:29;99327.16;;;8.73;100.00
73558;BME280;61829;53.286;10.434;2023-04-01T02:51:55;99332.53;;;8.73;100.00
73558;BME280;61829;53.286;10.434;2023-04-01T02:54:21;99333.16;;;8.75;100.00
73558;BME280;61829;53.286;10.434;2023-04-01T02:56:47;99333.97;;;8.75;100.00
73558;BME280;61829;53.286;10.434;2023-04-01T02:59:13;99335.84;;;8.75;100.00
73558;BME280;61829;53.286;10.434;2023-04-01T03:01:39;99331.28;;;8.75;100.00
73558;BME280;61829;53.286;10.434;2023-04-01T03:04:05;99330.25;;;8.76;100.00
73558;BME280;61829;53.286;10.434;2023-04-01T03:06:31;99333.16;;;8.75;100.00
73558;BME280;61829;53.286;10.434;2023-04-01T03:08:56;99337.50;;;8.76;100.00
73558;BME280;61829;53.286;10.434;2023-04-01T03:11:23;99338.72;;;8.73;100.00
73558;BME280;61829;53.286;10.434;2023-04-01T03:13:48;99340.59;;;8.73;100.00
73558;BME280;61829;53.286;10.434;2023-04-01T03:16:14;99345.16;;;8.72;100.00
73558;BME280;61829;53.286;10.434;2023-04-01T03:18:40;99337.91;;;8.73;100.00
73558;BME280;61829;53.286;10.434;2023-04-01T03:21:19;99343.06;;;8.74;100.00
73558;BME280;61829;53.286;10.434;2023-04-01T03:23:45;99343.06;;;8.74;100.00
73558;BME280;61829;53.286;10.434;2023-04-01T03:26:14;99344.31;;;8.72;100.00
73558;BME280;61829;53.286;10.434;2023-04-01T03:28:41;99342.47;;;8.72;100.00
73558;BME280;61829;53.286;10.434;2023-04-01T03:31:06;99348.84;;;8.71;100.00
73558;BME280;61829;53.286;10.434;2023-04-01T03:33:33;99339.78;;;8.72;100.00
73558;BME280;61829;53.286;10.434;2023-04-01T03:35:59;99341.63;;;8.72;100.00
73558;BME280;61829;53.286;10.434;2023-04-01T03:38:24;99341.63;;;8.72;100.00
73558;BME280;61829;53.286;10.434;2023-04-01T03:40:50;99349.06;;;8.70;100.00
73558;BME280;61829;53.286;10.434;2023-04-01T03:43:16;99343.69;;;8.70;100.00
73558;BME280;61829;53.286;10.434;2023-04-01T03:45:50;99341.63;;;8.72;100.00
73558;BME280;61829;53.286;10.434;2023-04-01T03:48:16;99349.28;;;8.75;100.00
73558;BME280;61829;53.286;10.434;2023-04-01T03:50:43;99353.78;;;8.74;100.00
73558;BME280;61829;53.286;10.434;2023-04-01T03:53:09;99356.91;;;8.71;100.00
73558;BME280;61829;53.286;10.434;2023-04-01T03:55:35;99356.72;;;8.73;100.00
73558;BME280;61829;53.286;10.434;2023-04-01T03:58:01;99362.91;;;8.73;100.00
73558;BME280;61829;53.286;10.434;2023-04-01T04:00:29;99354.22;;;8.71;100.00
73558;BME280;61829;53.286;10.434;2023-04-01T04:02:55;99357.75;;;8.72;100.00
73558;BME280;61829;53.286;10.434;2023-04-01T04:05:24;99365.81;;;8.72;100.00
73558;BME280;61829;53.286;10.434;2023-04-01T04:07:51;99359.38;;;8.73;100.00
73558;BME280;61829;53.286;10.434;2023-04-01T04:10:17;99361.25;;;8.72;100.00
73558;BME280;61829;53.286;10.434;2023-04-01T04:12:43;99363.31;;;8.70;100.00
73558;BME280;61829;53.286;10.434;2023-04-01T04:15:10;99362.50;;;8.70;100.00
73558;BME280;61829;53.286;10.434;2023-04-01T04:17:36;99366.63;;;8.72;100.00
73558;BME280;61829;53.286;10.434;2023-04-01T04:20:03;99374.06;;;8.70;100.00
73558;BME280;61829;53.286;10.434;2023-04-01T04:22:29;99377.56;;;8.71;100.00
73558;BME280;61829;53.286;10.434;2023-04-01T04:24:54;99370.31;;;8.71;100.00
73558;BME280;61829;53.286;10.434;2023-04-01T04:27:20;99378.59;;;8.70;100.00
73558;BME280;61829;53.286;10.434;2023-04-01T04:29:47;99378.59;;;8.70;100.00
73558;BME280;61829;53.286;10.434;2023-04-01T04:32:12;99380.88;;;8.73;100.00
73558;BME280;61829;53.286;10.434;2023-04-01T04:34:38;99380.25;;;8.71;100.00
73558;BME280;61829;53.286;10.434;2023-04-01T04:37:04;99387.50;;;8.70;100.00
73558;BME280;61829;53.286;10.434;2023-04-01T04:39:30;99382.13;;;8.70;100.00
73558;BME280;61829;53.286;10.434;2023-04-01T04:41:56;99390.16;;;8.70;100.00
73558;BME280;61829;53.286;10.434;2023-04-01T04:44:22;99390.16;;;8.70;100.00
73558;BME280;61829;53.286;10.434;2023-04-01T04:46:47;99390.16;;;8.70;100.00
73558;BME280;61829;53.286;10.434;2023-04-01T04:49:13;99398.84;;;8.72;100.00
73558;BME280;61829;53.286;10.434;2023-04-01T04:51:39;99397.00;;;8.73;100.00
73558;BME280;61829;53.286;10.434;2023-04-01T04:54:06;99398.84;;;8.72;100.00
73558;BME280;61829;53.286;10.434;2023-04-01T04:56:32;99397.19;;;8.71;100.00
73558;BME280;61829;53.286;10.434;2023-04-01T04:58:59;99402.56;;;8.71;100.00
73558;BME280;61829;53.286;10.434;2023-04-01T05:01:25;99406.09;;;8.72;100.00
73558;BME280;61829;53.286;10.434;2023-04-01T05:03:51;99408.16;;;8.70;100.00
73558;BME280;61829;53.286;10.434;2023-04-01T05:06:18;99417.03;;;8.70;100.00
73558;BME280;61829;53.286;10.434;2023-04-01T05:08:44;99426.94;;;8.70;100.00
73558;BME280;61829;53.286;10.434;2023-04-01T05:11:16;99415.38;;;8.69;100.00
73558;BME280;61829;53.286;10.434;2023-04-01T05:13:43;99415.38;;;8.69;100.00
73558;BME280;61829;53.286;10.434;2023-04-01T05:16:12;99422.00;;;8.67;100.00
73558;BME280;61829;53.286;10.434;2023-04-01T05:18:38;99422.81;;;8.67;100.00
73558;BME280;61829;53.286;10.434;2023-04-01T05:21:09;99420.94;;;8.68;100.00
73558;BME280;61829;53.286;10.434;2023-04-01T05:23:36;99428.19;;;8.67;100.00
73558;BME280;61829;53.286;10.434;2023-04-01T05:26:07;99425.28;;;8.69;100.00
73558;BME280;61829;53.286;10.434;2023-04-01T05:28:34;99429.81;;;8.68;100.00
73558;BME280;61829;53.286;10.434;2023-04-01T05:31:01;99438.31;;;8.72;100.00
73558;BME280;61829;53.286;10.434;2023-04-01T05:33:29;99438.31;;;8.72;100.00
73558;BME280;61829;53.286;10.434;2023-04-01T05:35:55;99433.97;;;8.71;100.00
73558;BME280;61829;53.286;10.434;2023-04-01T05:38:21;99438.91;;;8.74;100.00
73558;BME280;61829;53.286;10.434;2023-04-01T05:40:46;99439.75;;;8.74;100.00
73558;BME280;61829;53.286;10.434;2023-04-01T05:43:12;99436.66;;;8.77;100.00
73558;BME280;61829;53.286;10.434;2023-04-01T05:45:38;99446.38;;;8.79;100.00
73558;BME280;61829;53.286;10.434;2023-04-01T05:48:04;99443.69;;;8.79;100.00
73558;BME280;61829;53.286;10.434;2023-04-01T05:50:30;99446.38;;;8.79;100.00
73558;BME280;61829;53.286;10.434;2023-04-01T05:52:56;99448.44;;;8.83;100.00
73558;BME280;61829;53.286;10.434;2023-04-01T05:55:22;99455.03;;;8.87;100.00
73558;BME280;61829;53.286;10.434;2023-04-01T05:57:48;99455.84;;;8.88;100.00
73558;BME280;61829;53.286;10.434;2023-04-01T06:00:16;99458.34;;;8.89;100.00
73558;BME280;61829;53.286;10.434;2023-04-01T06:02:42;99451.75;;;8.92;100.00
73558;BME280;61829;53.286;10.434;2023-04-01T06:05:15;99462.88;;;8.95;100.00
73558;BME280;61829;53.286;10.434;2023-04-01T06:07:42;99464.34;;;8.98;100.00
73558;BME280;61829;53.286;10.434;2023-04-01T06:10:17;99461.41;;;8.99;100.00
73558;BME280;61829;53.286;10.434;2023-04-01T06:12:51;99459.16;;;9.03;100.00
73558;BME280;61829;53.286;10.434;2023-04-01T06:15:36;99469.28;;;9.08;100.00
73558;BME280;61829;53.286;10.434;2023-04-01T06:26:44;99483.34;;;8.96;100.00
73558;BME280;61829;53.286;10.434;2023-04-01T06:42:41;99517.78;;;7.85;100.00
73558;BME280;61829;53.286;10.434;2023-04-01T06:48:14;99525.41;;;7.81;100.00
73558;BME280;61829;53.286;10.434;2023-04-01T06:53:43;99528.59;;;7.63;100.00
73558;BME280;61829;53.286;10.434;2023-04-01T06:56:15;99528.34;;;7.58;100.00
73558;BME280;61829;53.286;10.434;2023-04-01T07:01:35;99547.47;;;7.49;100.00
73558;BME280;61829;53.286;10.434;2023-04-01T07:04:11;99551.09;;;7.34;100.00
73558;BME280;61829;53.286;10.434;2023-04-01T07:06:48;99545.06;;;7.26;100.00
73558;BME280;61829;53.286;10.434;2023-04-01T07:09:20;99549.34;;;7.20;100.00
73558;BME280;61829;53.286;10.434;2023-04-01T07:11:47;99558.78;;;7.16;100.00
73558;BME280;61829;53.286;10.434;2023-04-01T07:14:26;99556.09;;;7.16;100.00
73558;BME280;61829;53.286;10.434;2023-04-01T07:17:00;99557.91;;;7.09;100.00
73558;BME280;61829;53.286;10.434;2023-04-01T07:22:09;99570.47;;;7.08;100.00
73558;BME280;61829;53.286;10.434;2023-04-01T07:24:40;99580.28;;;7.01;100.00
73558;BME280;61829;53.286;10.434;2023-04-01T07:27:13;99573.94;;;7.02;100.00
73558;BME280;61829;53.286;10.434;2023-04-01T07:29:40;99571.63;;;6.99;100.00
73558;BME280;61829;53.286;10.434;2023-04-01T07:34:55;99587.69;;;6.99;100.00
73558;BME280;61829;53.286;10.434;2023-04-01T07:37:58;99588.72;;;6.98;100.00
73558;BME280;61829;53.286;10.434;2023-04-01T07:46:02;99613.28;;;6.80;100.00
73558;BME280;61829;53.286;10.434;2023-04-01T07:57:12;99622.19;;;6.66;100.00
73558;BME280;61829;53.286;10.434;2023-04-01T08:08:05;99639.72;;;6.53;100.00
73558;BME280;61829;53.286;10.434;2023-04-01T08:13:20;99659.50;;;6.52;100.00
73558;BME280;61829;53.286;10.434;2023-04-01T08:18:46;99656.19;;;6.36;100.00
73558;BME280;61829;53.286;10.434;2023-04-01T08:21:42;99665.97;;;6.43;100.00
73558;BME280;61829;53.286;10.434;2023-04-01T08:26:59;99673.63;;;6.46;100.00
73558;BME280;61829;53.286;10.434;2023-04-01T08:29:39;99681.81;;;6.45;100.00
73558;BME280;61829;53.286;10.434;2023-04-01T08:32:11;99676.09;;;6.48;100.00
73558;BME280;61829;53.286;10.434;2023-04-01T08:34:40;99684.13;;;6.48;100.00
73558;BME280;61829;53.286;10.434;2023-04-01T08:37:11;99687.47;;;6.50;100.00
73558;BME280;61829;53.286;10.434;2023-04-01T08:39:51;99687.91;;;6.53;100.00
73558;BME280;61829;53.286;10.434;2023-04-01T08:48:26;99695.94;;;6.53;100.00
73558;BME280;61829;53.286;10.434;2023-04-01T08:57:07;99707.13;;;6.42;100.00
73558;BME280;61829;53.286;10.434;2023-04-01T09:14:39;99734.25;;;6.24;100.00
73558;BME280;61829;53.286;10.434;2023-04-01T09:34:53;99765.63;;;6.30;100.00
73558;BME280;61829;53.286;10.434;2023-04-01T09:51:11;99787.28;;;6.06;100.00
73558;BME280;61829;53.286;10.434;2023-04-01T10:00:23;99798.22;;;6.11;100.00
73558;BME280;61829;53.286;10.434;2023-04-01T10:15:11;99812.66;;;6.25;100.00
73558;BME280;61829;53.286;10.434;2023-04-01T10:26:43;99822.06;;;6.21;100.00
73558;BME280;61829;53.286;10.434;2023-04-01T11:12:27;99872.47;;;6.32;100.00
73558;BME280;61829;53.286;10.434;2023-04-01T11:15:05;99875.31;;;6.30;100.00
73558;BME280;61829;53.286;10.434;2023-04-01T11:21:29;99894.78;;;6.39;100.00
73558;BME280;61829;53.286;10.434;2023-04-01T11:26:08;99895.91;;;6.45;100.00
73558;BME280;61829;53.286;10.434;2023-04-01T11:32:10;99899.63;;;6.44;100.00
73558;BME280;61829;53.286;10.434;2023-04-01T11:37:42;99907.13;;;6.25;100.00
73558;BME280;61829;53.286;10.434;2023-04-01T11:42:52;99908.06;;;6.33;100.00
73558;BME280;61829;53.286;10.434;2023-04-01T11:48:33;99926.81;;;6.33;100.00
73558;BME280;61829;53.286;10.434;2023-04-01T12:05:17;99946.13;;;6.43;100.00
73558;BME280;61829;53.286;10.434;2023-04-01T12:13:41;99970.31;;;6.49;100.00
73558;BME280;61829;53.286;10.434;2023-04-01T12:28:58;99991.00;;;6.33;99.97
73558;BME280;61829;53.286;10.434;2023-04-01T12:31:29;100001.59;;;6.26;100.00
73558;BME280;61829;53.286;10.434;2023-04-01T12:34:28;99992.72;;;6.25;100.00
73558;BME280;61829;53.286;10.434;2023-04-01T12:45:33;100006.19;;;6.17;100.00
73558;BME280;61829;53.286;10.434;2023-04-01T12:55:54;100032.03;;;6.25;100.00
73558;BME280;61829;53.286;10.434;2023-04-01T13:04:15;100042.22;;;5.98;100.00
73558;BME280;61829;53.286;10.434;2023-04-01T13:20:14;100070.78;;;5.90;100.00
73558;BME280;61829;53.286;10.434;2023-04-01T13:25:36;100075.13;;;5.91;100.00
73558;BME280;61829;53.286;10.434;2023-04-01T13:28:30;100089.88;;;5.87;100.00
73558;BME280;61829;53.286;10.434;2023-04-01T13:42:38;100107.81;;;5.61;99.77
73558;BME280;61829;53.286;10.434;2023-04-01T13:48:04;100102.28;;;5.63;100.00
73558;BME280;61829;53.286;10.434;2023-04-01T13:53:35;100114.66;;;5.56;100.00
73558;BME280;61829;53.286;10.434;2023-04-01T13:56:15;100121.66;;;5.57;100.00
73558;BME280;61829;53.286;10.434;2023-04-01T14:04:43;100135.72;;;5.51;100.00
73558;BME280;61829;53.286;10.434;2023-04-01T14:10:07;100138.06;;;5.46;98.95
73558;BME280;61829;53.286;10.434;2023-04-01T14:23:59;100168.94;;;5.40;99.81
73558;BME280;61829;53.286;10.434;2023-04-01T14:26:50;100169.47;;;5.44;99.96
73558;BME280;61829;53.286;10.434;2023-04-01T14:37:55;100188.31;;;5.34;100.00
73558;BME280;61829;53.286;10.434;2023-04-01T14:51:43;100216.72;;;5.18;100.00
73558;BME280;61829;53.286;10.434;2023-04-01T14:56:43;100216.19;;;5.15;100.00
73558;BME280;61829;53.286;10.434;2023-04-01T15:02:11;100225.88;;;5.16;100.00
73558;BME280;61829;53.286;10.434;2023-04-01T15:07:21;100232.19;;;5.15;100.00
73558;BME280;61829;53.286;10.434;2023-04-01T15:13:10;100244.22;;;5.11;100.00
73558;BME280;61829;53.286;10.434;2023-04-01T15:19:21;100255.72;;;5.03;100.00
73558;BME280;61829;53.286;10.434;2023-04-01T15:27:51;100270.84;;;4.86;100.00
73558;BME280;61829;53.286;10.434;2023-04-01T15:41:49;100284.06;;;4.88;100.00
73558;BME280;61829;53.286;10.434;2023-04-01T15:45:10;100301.53;;;4.82;100.00
73558;BME280;61829;53.286;10.434;2023-04-01T15:47:36;100301.69;;;4.81;99.76
73558;BME280;61829;53.286;10.434;2023-04-01T15:55:24;100315.69;;;4.75;100.00
73558;BME280;61829;53.286;10.434;2023-04-01T16:01:22;100323.66;;;4.66;99.64
73558;BME280;61829;53.286;10.434;2023-04-01T16:04:06;100326.81;;;4.62;99.64
73558;BME280;61829;53.286;10.434;2023-04-01T16:20:19;100363.75;;;4.48;97.96
73558;BME280;61829;53.286;10.434;2023-04-01T16:23:15;100359.56;;;4.46;97.21
73558;BME280;61829;53.286;10.434;2023-04-01T16:29:12;100378.41;;;4.26;97.80
73558;BME280;61829;53.286;10.434;2023-04-01T16:31:50;100376.06;;;4.23;97.39
73558;BME280;61829;53.286;10.434;2023-04-01T16:51:45;100419.50;;;4.16;98.20
73558;BME280;61829;53.286;10.434;2023-04-01T16:54:25;100428.50;;;4.15;97.95
73558;BME280;61829;53.286;10.434;2023-04-01T16:57:21;100438.09;;;4.08;98.84
73558;BME280;61829;53.286;10.434;2023-04-01T17:02:58;100452.41;;;4.07;100.00
73558;BME280;61829;53.286;10.434;2023-04-01T17:11:39;100465.28;;;3.93;99.55
73558;BME280;61829;53.286;10.434;2023-04-01T17:14:20;100481.03;;;3.87;98.53
73558;BME280;61829;53.286;10.434;2023-04-01T17:16:56;100480.41;;;3.75;97.31
73558;BME280;61829;53.286;10.434;2023-04-01T17:19:44;100497.66;;;3.71;97.86
73558;BME280;61829;53.286;10.434;2023-04-01T17:22:27;100497.00;;;3.69;97.92
73558;BME280;61829;53.286;10.434;2023-04-01T17:25:28;100498.38;;;3.73;98.91
73558;BME280;61829;53.286;10.434;2023-04-01T17:36:27;100530.09;;;3.66;99.36
73558;BME280;61829;53.286;10.434;2023-04-01T17:42:15;100548.22;;;3.63;99.71
73558;BME280;61829;53.286;10.434;2023-04-01T17:47:33;100555.94;;;3.56;98.06
73558;BME280;61829;53.286;10.434;2023-04-01T17:50:09;100551.91;;;3.52;98.50
73558;BME280;61829;53.286;10.434;2023-04-01T17:52:45;100574.19;;;3.51;98.95
73558;BME280;61829;53.286;10.434;2023-04-01T18:14:36;100613.59;;;3.47;99.11
73558;BME280;61829;53.286;10.434;2023-04-01T18:17:32;100619.38;;;3.43;98.88
73558;BME280;61829;53.286;10.434;2023-04-01T18:20:26;100623.28;;;3.38;98.54
73558;BME280;61829;53.286;10.434;2023-04-01T18:25:46;100635.50;;;3.31;96.52
73558;BME280;61829;53.286;10.434;2023-04-01T18:31:20;100658.91;;;3.28;95.98
73558;BME280;61829;53.286;10.434;2023-04-01T18:33:50;100657.66;;;3.32;95.62
73558;BME280;61829;53.286;10.434;2023-04-01T18:37:02;100661.56;;;3.28;94.62
73558;BME280;61829;53.286;10.434;2023-04-01T18:39:42;100677.53;;;3.28;95.23
73558;BME280;61829;53.286;10.434;2023-04-01T18:44:46;100688.19;;;3.28;95.04
73558;BME280;61829;53.286;10.434;2023-04-01T18:50:01;100702.78;;;3.24;94.74
73558;BME280;61829;53.286;10.434;2023-04-01T18:52:36;100707.28;;;3.23;94.41
73558;BME280;61829;53.286;10.434;2023-04-01T18:57:59;100717.06;;;3.23;94.69
73558;BME280;61829;53.286;10.434;2023-04-01T19:00:41;100725.34;;;3.20;94.51
73558;BME280;61829;53.286;10.434;2023-04-01T19:03:24;100722.53;;;3.21;94.70
73558;BME280;61829;53.286;10.434;2023-04-01T19:05:55;100728.16;;;3.18;95.51
73558;BME280;61829;53.286;10.434;2023-04-01T19:08:39;100736.84;;;3.20;94.28
73558;BME280;61829;53.286;10.434;2023-04-01T19:31:11;100778.31;;;3.03;92.84
73558;BME280;61829;53.286;10.434;2023-04-01T19:33:52;100777.03;;;3.07;92.39
73558;BME280;61829;53.286;10.434;2023-04-01T19:36:45;100785.03;;;3.07;92.08
73558;BME280;61829;53.286;10.434;2023-04-01T19:58:06;100831.53;;;3.03;92.06
73558;BME280;61829;53.286;10.434;2023-04-01T20:00:39;100848.19;;;3.05;92.08
73558;BME280;61829;53.286;10.434;2023-04-01T20:08:54;100853.41;;;3.07;91.17
73558;BME280;61829;53.286;10.434;2023-04-01T20:17:07;100867.66;;;2.96;88.61
73558;BME280;61829;53.286;10.434;2023-04-01T20:19:45;100881.78;;;2.87;87.02
73558;BME280;61829;53.286;10.434;2023-04-01T20:22:29;100886.00;;;2.89;88.28
73558;BME280;61829;53.286;10.434;2023-04-01T20:25:01;100897.16;;;2.83;86.69
73558;BME280;61829;53.286;10.434;2023-04-01T20:27:33;100917.03;;;2.79;84.65
73558;BME280;61829;53.286;10.434;2023-04-01T20:30:26;100916.53;;;2.64;82.83
73558;BME280;61829;53.286;10.434;2023-04-01T20:57:57;100953.53;;;2.14;84.56
73558;BME280;61829;53.286;10.434;2023-04-01T21:06:46;100968.28;;;2.18;85.96
73558;BME280;61829;53.286;10.434;2023-04-01T21:09:36;100972.16;;;2.14;85.78
73558;BME280;61829;53.286;10.434;2023-04-01T21:23:34;100997.97;;;1.80;81.80
73558;BME280;61829;53.286;10.434;2023-04-01T21:40:00;101027.72;;;1.51;81.63
73558;BME280;61829;53.286;10.434;2023-04-01T21:42:45;101023.63;;;1.47;81.93
73558;BME280;61829;53.286;10.434;2023-04-01T21:53:50;101054.63;;;1.35;81.88
73558;BME280;61829;53.286;10.434;2023-04-01T22:02:20;101059.47;;;1.30;82.92
73558;BME280;61829;53.286;10.434;2023-04-01T22:07:54;101067.78;;;1.26;82.76
73558;BME280;61829;53.286;10.434;2023-04-01T22:21:18;101095.38;;;1.12;84.26
73558;BME280;61829;53.286;10.434;2023-04-01T22:29:31;101113.59;;;1.05;84.47
73558;BME280;61829;53.286;10.434;2023-04-01T22:32:21;101118.25;;;1.02;84.65
73558;BME280;61829;53.286;10.434;2023-04-01T22:40:37;101132.00;;;0.96;84.47
73558;BME280;61829;53.286;10.434;2023-04-01T22:43:09;101133.19;;;0.92;85.03
73558;BME280;61829;53.286;10.434;2023-04-01T22:56:28;101147.16;;;0.82;85.10
73558;BME280;61829;53.286;10.434;2023-04-01T22:59:13;101146.19;;;0.83;85.39
73558;BME280;61829;53.286;10.434;2023-04-01T23:01:46;101150.03;;;0.79;85.01
73558;BME280;61829;53.286;10.434;2023-04-01T23:04:16;101162.56;;;0.77;85.57
73558;BME280;61829;53.286;10.434;2023-04-01T23:06:53;101162.44;;;0.79;85.66
73558;BME280;61829;53.286;10.434;2023-04-01T23:09:27;101171.25;;;0.79;85.16
73558;BME280;61829;53.286;10.434;2023-04-01T23:12:07;101175.09;;;0.75;86.15
73558;BME280;61829;53.286;10.434;2023-04-01T23:14:39;101179.53;;;0.75;86.17
73558;BME280;61829;53.286;10.434;2023-04-01T23:27:45;101200.56;;;0.65;86.84
73558;BME280;61829;53.286;10.434;2023-04-01T23:36:11;101205.38;;;0.60;86.93
73558;BME280;61829;53.286;10.434;2023-04-01T23:38:42;101221.31;;;0.60;86.45
73558;BME280;61829;53.286;10.434;2023-04-01T23:41:28;101210.78;;;0.58;86.82
73558;BME280;61829;53.286;10.434;2023-04-01T23:44:05;101218.00;;;0.56;85.85
73558;BME280;61829;53.286;10.434;2023-04-01T23:46:35;101218.13;;;0.55;86.54
73558;BME280;61829;53.286;10.434;2023-04-01T23:49:03;101223.44;;;0.55;85.74
73558;BME280;61829;53.286;10.434;2023-04-01T23:51:37;101225.94;;;0.56;86.19
73558;BME280;61829;53.286;10.434;2023-04-01T23:54:48;101239.13;;;0.58;85.83
73558;BME280;61829;53.286;10.434;2023-04-01T23:57:22;101239.13;;;0.58;85.28
